Time;durP1;ratioP1;P1;durP2;ratioP2;P2;SDS_P1;SDS_P2;PMS_P1;PMS_P2;Temp;Humidity;BMP_temperature;BMP_pressure;BME280_temperature;BME280_humidity;BME280_pressure;Samples;Min_cycle;Max_cycle;Signal;HPM_P1;HPM_P2
2023/04/19 05:09:38;;;;;;;;;;;;;;;;;;5044244;28;19962;-44
2023/04/19 05:12:04;;;;;;;;;;;;;;;;;;5047416;28;19913;-43
2023/04/19 05:14:31;;;;;;;;;;;;;;;;;;5045144;28;20379;-43
2023/04/19 05:16:57;;;;;;;;;;;;;;;;;;5030778;28;19927;-43
2023/04/19 05:19:22;;;;;;;;;;;;;;;;;;5031718;28;19921;-43
2023/04/19 05:21:49;;;;;;;;;;;;;;;;;;5030150;28;19995;-44
2023/04/19 05:24:15;;;;;;;;;;;;;;;;;;5030603;28;19916;-44
2023/04/19 05:26:41;;;;;;;;;;;;;;;;;;5045308;28;19909;-43
2023/04/19 05:29:07;;;;;;;;;;;;;;;;;;5040447;28;19908;-43
2023/04/19 05:31:33;;;;;;;;;;;;;;;;;;5043439;28;19920;-44
2023/04/19 05:33:59;;;;;;;;;;;;;;;;;;5045208;28;19943;-44
2023/04/19 05:36:25;;;;;;;;;;;;;;;;;;5045202;28;19941;-43
2023/04/19 05:38:51;;;;;;;;;;;;;;;;;;5043529;28;19948;-46
2023/04/19 05:41:17;;;;;;;;;;;;;;;;;;5034764;28;19952;-43
2023/04/19 05:43:43;;;;;;;;;;;;;;;;;;5049284;28;19917;-43
2023/04/19 05:46:09;;;;;;;;;;;;;;;;;;5068263;28;19904;-42
2023/04/19 05:48:35;;;;;;;;;;;;;;;;;;5071099;28;20290;-43
2023/04/19 05:51:01;;;;;;;;;;;;;;;;;;5053516;28;19915;-43
2023/04/19 05:53:27;;;;;;;;;;;;;;;;;;5051143;28;19912;-43
2023/04/19 05:55:53;;;;;;;;;;;;;;;;;;5051540;28;19995;-43
2023/04/19 05:58:22;;;;;;;;;;;;;;;;;;5068072;28;19954;-45
2023/04/19 06:00:48;;;;;;;;;;;;;;;;;;5068750;28;19904;-43
2023/04/19 06:03:14;;;;;;;;;;;;;;;;;;5049836;28;19955;-43
2023/04/19 06:05:40;;;;;;;;;;;;;;;;;;5040195;28;20399;-43
2023/04/19 06:08:06;;;;;;;;;;;;;;;;;;5031189;28;19963;-43
2023/04/19 06:10:32;;;;;;;;;;;;;;;;;;5031327;28;19917;-44
2023/04/19 06:12:58;;;;;;;;;;;;;;;;;;5031655;28;19909;-44
2023/04/19 06:15:24;;;;;;;;;;;;;;;;;;5040013;28;19970;-47
2023/04/19 06:17:50;;;;;;;;;;;;;;;;;;5050833;28;19905;-46
2023/04/19 06:20:16;;;;;;;;;;;;;;;;;;5050955;28;19905;-44
2023/04/19 06:22:42;;;;;;;;;;;;;;;;;;5049623;28;19912;-46
2023/04/19 06:25:08;;;;;;;;;;;;;;;;;;5038756;28;20378;-46
2023/04/19 06:27:34;;;;;;;;;;;;;;;;;;5030762;28;19909;-44
2023/04/19 06:30:00;;;;;;;;;;;;;;;;;;5031324;28;20012;-46
2023/04/19 06:32:26;;;;;;;;;;;;;;;;;;5035825;28;20011;-44
2023/04/19 06:34:52;;;;;;;;;;;;;;;;;;5038030;28;20690;-43
2023/04/19 06:37:18;;;;;;;;;;;;;;;;;;5030874;28;19936;-43
2023/04/19 06:39:44;;;;;;;;;;;;;;;;;;5048348;28;19958;-44
2023/04/19 06:42:11;;;;;;;;;;;;;;;;;;5052622;28;19943;-45
2023/04/19 06:44:37;;;;;;;;;;;;;;;;;;5042861;28;20375;-44
2023/04/19 06:47:03;;;;;;;;;;;;;;;;;;5053120;28;19917;-44
2023/04/19 06:49:29;;;;;;;;;;;;;;;;;;5046649;28;19920;-43
2023/04/19 06:51:55;;;;;;;;;;;;;;;;;;5032116;28;19960;-46
2023/04/19 06:54:21;;;;;;;;;;;;;;;;;;5031660;28;19909;-44
2023/04/19 06:56:47;;;;;;;;;;;;;;;;;;5051100;28;19904;-47
2023/04/19 06:59:13;;;;;;;;;;;;;;;;;;5045369;28;19916;-44
2023/04/19 07:01:40;;;;;;;;;;;;;;;;;;5040973;28;19926;-45
2023/04/19 07:04:06;;;;;;;;;;;;;;;;;;5033037;28;19909;-45
2023/04/19 07:06:32;;;;;;;;;;;;;;;;;;5050896;28;19909;-43
2023/04/19 07:08:58;;;;;;;;;;;;;;;;;;5039046;28;20462;-44
2023/04/19 07:11:24;;;;;;;;;;;;;;;;;;5041413;28;20011;-44
2023/04/19 07:13:51;;;;;;;;;;;;;;;;;;5038206;28;19905;-47
2023/04/19 07:16:17;;;;;;;;;;;;;;;;;;5052578;28;20011;-44
2023/04/19 07:18:43;;;;;;;;;;;;;;;;;;5043604;28;19991;-45
2023/04/19 07:21:09;;;;;;;;;;;;;;;;;;5044184;28;19983;-44
2023/04/19 07:23:35;;;;;;;;;;;;;;;;;;5043435;28;19913;-45
2023/04/19 07:26:01;;;;;;;;;;;;;;;;;;5031603;28;19909;-43
2023/04/19 07:28:27;;;;;;;;;;;;;;;;;;5045874;28;19968;-46
2023/04/19 07:30:53;;;;;;;;;;;;;;;;;;5040503;28;19924;-44
2023/04/19 07:33:19;;;;;;;;;;;;;;;;;;5028675;28;19916;-45
2023/04/19 07:35:45;;;;;;;;;;;;;;;;;;5041320;28;20003;-44
2023/04/19 07:38:11;;;;;;;;;;;;;;;;;;5011052;28;19911;-44
2023/04/19 07:40:37;;;;;;;;;;;;;;;;;;5036042;28;19915;-48
2023/04/19 07:43:02;;;;;;;;;;;;;;;;;;5047961;28;19935;-47
2023/04/19 07:45:28;;;;;;;;;;;;;;;;;;5046167;28;19947;-46
2023/04/19 07:47:54;;;;;;;;;;;;;;;;;;5035199;28;19935;-44
2023/04/19 07:50:20;;;;;;;;;;;;;;;;;;5036430;28;19909;-45
2023/04/19 07:52:46;;;;;;;;;;;;;;;;;;5032140;28;19906;-44
2023/04/19 07:55:12;;;;;;;;;;;;;;;;;;5035387;28;19912;-46
2023/04/19 07:57:38;;;;;;;;;;;;;;;;;;5043544;28;19905;-44
2023/04/19 08:00:05;;;;;;;;;;;;;;;;;;5043506;28;20414;-46
2023/04/19 08:02:31;;;;;;;;;;;;;;;;;;5027808;28;19967;-44
2023/04/19 08:04:57;;;;;;;;;;;;;;;;;;5033762;28;19909;-47
2023/04/19 08:07:24;;;;;;;;;;;;;;;;;;5022366;28;20024;-44
2023/04/19 08:09:51;;;;;;;;;;;;;;;;;;5042003;28;19991;-44
2023/04/19 08:12:18;;;;;;;;;;;;;;;;;;5041465;28;19908;-45
2023/04/19 08:14:44;;;;;;;;;;;;;;;;;;5045988;28;20507;-45
2023/04/19 08:17:10;;;;;;;;;;;;;;;;;;5039403;28;19959;-46
2023/04/19 08:19:36;;;;;;;;;;;;;;;;;;5046091;28;19909;-45
2023/04/19 08:22:03;;;;;;;;;;;;;;;;;;5028498;28;19995;-46
2023/04/19 08:24:30;;;;;;;;;;;;;;;;;;5028336;28;19913;-45
2023/04/19 08:26:56;;;;;;;;;;;;;;;;;;5032035;28;20358;-47
2023/04/19 08:29:22;;;;;;;;;;;;;;;;;;5040082;28;19912;-44
2023/04/19 08:31:48;;;;;;;;;;;;;;;;;;5041603;28;20397;-44
2023/04/19 08:34:14;;;;;;;;;;;;;;;;;;5037042;28;19913;-44
2023/04/19 08:36:40;;;;;;;;;;;;;;;;;;5032439;28;19912;-43
2023/04/19 08:39:06;;;;;;;;;;;;;;;;;;5036543;28;20401;-47
2023/04/19 08:41:32;;;;;;;;;;;;;;;;;;5066711;28;19952;-46
2023/04/19 08:43:58;;;;;;;;;;;;;;;;;;5051998;28;19908;-45
2023/04/19 08:46:25;;;;;;;;;;;;;;;;;;5058730;28;20038;-45
2023/04/19 08:48:51;;;;;;;;;;;;;;;;;;5069609;28;20333;-47
2023/04/19 08:51:17;;;;;;;;;;;;;;;;;;5061536;28;19979;-45
2023/04/19 08:53:43;;;;;;;;;;;;;;;;;;5044166;28;19920;-48
2023/04/19 08:56:09;;;;;;;;;;;;;;;;;;5050394;28;19959;-48
2023/04/19 08:58:35;;;;;;;;;;;;;;;;;;5047199;28;19908;-47
2023/04/19 09:01:01;;;;;;;;;;;;;;;;;;5060934;28;19911;-44
2023/04/19 09:03:27;;;;;;;;;;;;;;;;;;5051534;28;19940;-47
2023/04/19 09:05:53;;;;;;;;;;;;;;;;;;5028656;28;19963;-45
2023/04/19 09:08:19;;;;;;;;;;;;;;;;;;5029306;28;20006;-45
2023/04/19 09:10:45;;;;;;;;;;;;;;;;;;5029498;28;19916;-46
2023/04/19 09:13:12;;;;;;;;;;;;;;;;;;5030456;28;19980;-47
2023/04/19 09:15:38;;;;;;;;;;;;;;;;;;5036789;28;19932;-47
2023/04/19 09:18:05;;;;;;;;;;;;;;;;;;5026040;28;19923;-45
2023/04/19 09:20:31;;;;;;;;;;;;;;;;;;5026576;28;19909;-48
2023/04/19 09:22:57;;;;;;;;;;;;;;;;;;5030808;28;19920;-46
2023/04/19 09:25:23;;;;;;;;;;;;;;;;;;5037299;28;19921;-45
2023/04/19 09:27:49;;;;;;;;;;;;;;;;;;5041435;28;19983;-45
2023/04/19 09:30:15;;;;;;;;;;;;;;;;;;5035338;28;19909;-45
2023/04/19 09:32:41;;;;;;;;;;;;;;;;;;5039610;28;19908;-44
2023/04/19 09:35:07;;;;;;;;;;;;;;;;;;5036462;28;19982;-48
2023/04/19 09:37:33;;;;;;;;;;;;;;;;;;5035757;28;20015;-45
2023/04/19 09:39:59;;;;;;;;;;;;;;;;;;5036018;28;19905;-45
2023/04/19 09:42:25;;;;;;;;;;;;;;;;;;5040462;28;19959;-45
2023/04/19 09:44:50;;;;;;;;;;;;;;;;;;5036194;28;20367;-48
2023/04/19 09:47:16;;;;;;;;;;;;;;;;;;5028950;28;19940;-47
2023/04/19 09:49:42;;;;;;;;;;;;;;;;;;5034249;28;19931;-45
2023/04/19 09:52:08;;;;;;;;;;;;;;;;;;5048187;28;19904;-48
2023/04/19 09:54:34;;;;;;;;;;;;;;;;;;5026153;28;19913;-47
2023/04/19 09:57:01;;;;;;;;;;;;;;;;;;5027258;28;19912;-44
2023/04/19 09:59:27;;;;;;;;;;;;;;;;;;5028963;28;19917;-46
2023/04/19 10:01:53;;;;;;;;;;;;;;;;;;5028413;28;20050;-45
2023/04/19 10:04:22;;;;;;;;;;;;;;;;;;5027500;28;20478;-45
2023/04/19 10:06:51;;;;;;;;;;;;;;;;;;5024966;28;19909;-44
2023/04/19 10:09:16;;;;;;;;;;;;;;;;;;5018690;28;19981;-43
2023/04/19 10:11:42;;;;;;;;;;;;;;;;;;5030015;28;19913;-45
2023/04/19 10:14:08;;;;;;;;;;;;;;;;;;5031841;28;19915;-45
2023/04/19 10:16:34;;;;;;;;;;;;;;;;;;5021304;28;19936;-46
2023/04/19 10:19:00;;;;;;;;;;;;;;;;;;5032158;28;19913;-44
2023/04/19 10:21:26;;;;;;;;;;;;;;;;;;5028915;28;19905;-48
2023/04/19 10:23:52;;;;;;;;;;;;;;;;;;5030155;28;19917;-45
2023/04/19 10:26:18;;;;;;;;;;;;;;;;;;5027937;28;20271;-46
2023/04/19 10:28:44;;;;;;;;;;;;;;;;;;5030403;28;20003;-45
2023/04/19 10:31:10;;;;;;;;;;;;;;;;;;5034046;28;20010;-45
2023/04/19 10:33:36;;;;;;;;;;;;;;;;;;5028259;28;19920;-44
2023/04/19 10:36:02;;;;;;;;;;;;;;;;;;5034562;28;19913;-44
2023/04/19 10:38:28;;;;;;;;;;;;;;;;;;5037535;28;19909;-44
2023/04/19 10:40:59;;;;;;;;;;;;;;;;;;5037493;28;19909;-45
2023/04/19 10:43:26;;;;;;;;;;;;;;;;;;5039543;28;19924;-44
2023/04/19 10:45:52;;;;;;;;;;;;;;;;;;5026080;28;20543;-44
2023/04/19 10:48:18;;;;;;;;;;;;;;;;;;5028811;28;20379;-44
2023/04/19 10:50:43;;;;;;;;;;;;;;;;;;5026330;28;19913;-46
2023/04/19 10:53:09;;;;;;;;;;;;;;;;;;5028573;28;19983;-47
2023/04/19 10:55:35;;;;;;;;;;;;;;;;;;5021976;28;19920;-46
2023/04/19 10:58:02;;;;;;;;;;;;;;;;;;5013523;28;19909;-45
2023/04/19 11:00:30;;;;;;;;;;;;;;;;;;5035241;28;19905;-44
2023/04/19 11:02:57;;;;;;;;;;;;;;;;;;5036898;28;19916;-45
2023/04/19 11:05:23;;;;;;;;;;;;;;;;;;5034202;28;19992;-46
2023/04/19 11:07:49;;;;;;;;;;;;;;;;;;5035468;28;20000;-44
2023/04/19 11:10:15;;;;;;;;;;;;;;;;;;5025544;28;19940;-46
2023/04/19 11:12:41;;;;;;;;;;;;;;;;;;5027449;28;19917;-44
2023/04/19 11:15:08;;;;;;;;;;;;;;;;;;5027047;28;19931;-45
2023/04/19 11:17:36;;;;;;;;;;;;;;;;;;5026990;28;19963;-47
2023/04/19 11:20:02;;;;;;;;;;;;;;;;;;5026086;28;19909;-44
2023/04/19 11:22:28;;;;;;;;;;;;;;;;;;5026871;28;19917;-48
2023/04/19 11:24:54;;;;;;;;;;;;;;;;;;5025999;28;20027;-45
2023/04/19 11:27:21;;;;;;;;;;;;;;;;;;5026636;28;19905;-45
2023/04/19 11:29:46;;;;;;;;;;;;;;;;;;5024893;28;20013;-45
2023/04/19 11:32:12;;;;;;;;;;;;;;;;;;5026008;28;19996;-45
2023/04/19 11:34:38;;;;;;;;;;;;;;;;;;5030930;28;19936;-45
2023/04/19 11:37:04;;;;;;;;;;;;;;;;;;5025067;28;19912;-47
2023/04/19 11:39:31;;;;;;;;;;;;;;;;;;5025389;28;19970;-48
2023/04/19 11:41:58;;;;;;;;;;;;;;;;;;5021861;28;20364;-46
2023/04/19 11:44:25;;;;;;;;;;;;;;;;;;5026299;28;19913;-46
2023/04/19 11:46:51;;;;;;;;;;;;;;;;;;5030612;28;19995;-46
2023/04/19 11:49:17;;;;;;;;;;;;;;;;;;5027388;28;19916;-46
2023/04/19 11:51:42;;;;;;;;;;;;;;;;;;5028849;28;19999;-48
2023/04/19 11:54:08;;;;;;;;;;;;;;;;;;5026164;28;19909;-45
2023/04/19 11:56:35;;;;;;;;;;;;;;;;;;5020943;28;19963;-46
2023/04/19 11:59:01;;;;;;;;;;;;;;;;;;5018785;28;20125;-48
2023/04/19 12:01:26;;;;;;;;;;;;;;;;;;5026021;28;20384;-46
2023/04/19 12:03:52;;;;;;;;;;;;;;;;;;5034360;28;19958;-49
2023/04/19 12:06:18;;;;;;;;;;;;;;;;;;5032017;28;19912;-50
2023/04/19 12:08:45;;;;;;;;;;;;;;;;;;5025648;28;20335;-48
2023/04/19 12:11:11;;;;;;;;;;;;;;;;;;5030558;28;20362;-49
2023/04/19 12:13:39;;;;;;;;;;;;;;;;;;5041483;28;19909;-49
2023/04/19 12:16:05;;;;;;;;;;;;;;;;;;5025296;28;19909;-46
2023/04/19 12:18:31;;;;;;;;;;;;;;;;;;5024894;28;20470;-46
2023/04/19 12:20:57;;;;;;;;;;;;;;;;;;5034023;28;19999;-46
2023/04/19 12:23:23;;;;;;;;;;;;;;;;;;5031490;28;19917;-45
2023/04/19 12:25:49;;;;;;;;;;;;;;;;;;5032209;28;20268;-45
2023/04/19 12:28:15;;;;;;;;;;;;;;;;;;5028195;28;19959;-45
2023/04/19 12:30:41;;;;;;;;;;;;;;;;;;5025243;28;20386;-46
2023/04/19 12:33:07;;;;;;;;;;;;;;;;;;5025585;28;19924;-46
2023/04/19 12:35:33;;;;;;;;;;;;;;;;;;5034530;28;19912;-46
2023/04/19 12:37:59;;;;;;;;;;;;;;;;;;5041838;28;19917;-45
2023/04/19 12:40:26;;;;;;;;;;;;;;;;;;5031563;28;20304;-46
2023/04/19 12:42:52;;;;;;;;;;;;;;;;;;5025296;28;19956;-45
2023/04/19 12:45:19;;;;;;;;;;;;;;;;;;5025562;28;20403;-48
2023/04/19 12:47:46;;;;;;;;;;;;;;;;;;5025119;28;20034;-48
2023/04/19 12:50:11;;;;;;;;;;;;;;;;;;5027292;28;19920;-49
2023/04/19 12:52:37;;;;;;;;;;;;;;;;;;5025792;28;19909;-47
2023/04/19 12:55:03;;;;;;;;;;;;;;;;;;5027736;28;20442;-46
2023/04/19 12:57:30;;;;;;;;;;;;;;;;;;5021730;28;19923;-47
2023/04/19 12:59:56;;;;;;;;;;;;;;;;;;5027983;28;19913;-46
2023/04/19 13:02:22;;;;;;;;;;;;;;;;;;5031820;28;19975;-46
2023/04/19 13:04:48;;;;;;;;;;;;;;;;;;5028801;28;20056;-46
2023/04/19 13:07:14;;;;;;;;;;;;;;;;;;5025340;28;19909;-49
2023/04/19 13:09:40;;;;;;;;;;;;;;;;;;5028846;28;19913;-46
2023/04/19 13:12:06;;;;;;;;;;;;;;;;;;5026198;28;20384;-46
2023/04/19 13:14:32;;;;;;;;;;;;;;;;;;5029948;28;19912;-47
2023/04/19 13:16:58;;;;;;;;;;;;;;;;;;5025749;28;20547;-49
2023/04/19 13:19:25;;;;;;;;;;;;;;;;;;5038938;28;19999;-47
2023/04/19 13:21:51;;;;;;;;;;;;;;;;;;5046173;28;19913;-46
2023/04/19 13:24:18;;;;;;;;;;;;;;;;;;5046249;28;20012;-46
2023/04/19 13:26:45;;;;;;;;;;;;;;;;;;5046275;28;20213;-46
2023/04/19 13:29:11;;;;;;;;;;;;;;;;;;5020652;28;20380;-50
2023/04/19 13:31:37;;;;;;;;;;;;;;;;;;5022658;28;19913;-46
2023/04/19 13:34:03;;;;;;;;;;;;;;;;;;5027638;28;19951;-46
2023/04/19 13:36:29;;;;;;;;;;;;;;;;;;5028239;28;20395;-46
2023/04/19 13:38:54;;;;;;;;;;;;;;;;;;5029636;28;20035;-47
2023/04/19 13:41:20;;;;;;;;;;;;;;;;;;5030246;28;20349;-47
2023/04/19 13:43:46;;;;;;;;;;;;;;;;;;5030087;28;19995;-46
2023/04/19 13:46:12;;;;;;;;;;;;;;;;;;5030202;28;19952;-46
2023/04/19 13:48:38;;;;;;;;;;;;;;;;;;5028603;28;19933;-47
2023/04/19 13:51:04;;;;;;;;;;;;;;;;;;5010041;28;19967;-47
2023/04/19 13:53:30;;;;;;;;;;;;;;;;;;5028111;28;19917;-47
2023/04/19 13:55:56;;;;;;;;;;;;;;;;;;5029837;28;19909;-47
2023/04/19 13:58:23;;;;;;;;;;;;;;;;;;5029761;28;19941;-50
2023/04/19 14:00:49;;;;;;;;;;;;;;;;;;5029703;28;19905;-48
2023/04/19 14:03:15;;;;;;;;;;;;;;;;;;5029796;28;20294;-47
2023/04/19 14:05:41;;;;;;;;;;;;;;;;;;5030107;28;19908;-49
2023/04/19 14:08:07;;;;;;;;;;;;;;;;;;5029491;28;19917;-48
2023/04/19 14:10:33;;;;;;;;;;;;;;;;;;5029140;28;19944;-48
2023/04/19 14:12:59;;;;;;;;;;;;;;;;;;5029597;28;19998;-46
2023/04/19 14:15:25;;;;;;;;;;;;;;;;;;5029743;28;19909;-46
2023/04/19 14:17:51;;;;;;;;;;;;;;;;;;5029626;28;19909;-49
2023/04/19 14:20:18;;;;;;;;;;;;;;;;;;5029373;28;19955;-48
2023/04/19 14:22:45;;;;;;;;;;;;;;;;;;5029157;28;19925;-48
2023/04/19 14:25:13;;;;;;;;;;;;;;;;;;5029789;28;19905;-49
2023/04/19 14:27:39;;;;;;;;;;;;;;;;;;5029383;28;20439;-47
2023/04/19 14:30:05;;;;;;;;;;;;;;;;;;5023868;28;19920;-49
2023/04/19 14:32:31;;;;;;;;;;;;;;;;;;5028653;28;19915;-48
2023/04/19 14:34:57;;;;;;;;;;;;;;;;;;5028996;28;20000;-47
2023/04/19 14:37:23;;;;;;;;;;;;;;;;;;5028897;28;19962;-48
2023/04/19 14:39:49;;;;;;;;;;;;;;;;;;5028891;28;19917;-47
2023/04/19 14:42:15;;;;;;;;;;;;;;;;;;5028608;28;19923;-49
2023/04/19 14:44:41;;;;;;;;;;;;;;;;;;5029228;28;19905;-48
2023/04/19 14:47:07;;;;;;;;;;;;;;;;;;5028859;28;19905;-49
2023/04/19 14:49:34;;;;;;;;;;;;;;;;;;5028738;28;19924;-46
2023/04/19 14:52:00;;;;;;;;;;;;;;;;;;5028463;28;20264;-47
2023/04/19 14:54:26;;;;;;;;;;;;;;;;;;5028278;28;19905;-46
2023/04/19 14:56:52;;;;;;;;;;;;;;;;;;5020700;28;19974;-46
2023/04/19 14:59:18;;;;;;;;;;;;;;;;;;5028699;28;19905;-49
2023/04/19 15:01:44;;;;;;;;;;;;;;;;;;5028503;28;19908;-50
2023/04/19 15:04:10;;;;;;;;;;;;;;;;;;5028602;28;19932;-50
2023/04/19 15:06:36;;;;;;;;;;;;;;;;;;5029456;28;19951;-49
2023/04/19 15:09:02;;;;;;;;;;;;;;;;;;5026513;28;20304;-46
2023/04/19 15:11:28;;;;;;;;;;;;;;;;;;5028272;28;19941;-50
2023/04/19 15:13:55;;;;;;;;;;;;;;;;;;5025880;28;19955;-46
2023/04/19 15:16:21;;;;;;;;;;;;;;;;;;5020882;28;19912;-49
2023/04/19 15:18:48;;;;;;;;;;;;;;;;;;5027350;28;19913;-46
2023/04/19 15:21:14;;;;;;;;;;;;;;;;;;5028043;28;20386;-46
2023/04/19 15:23:40;;;;;;;;;;;;;;;;;;5028042;28;19913;-47
2023/04/19 15:26:06;;;;;;;;;;;;;;;;;;5028427;28;19905;-45
2023/04/19 15:28:33;;;;;;;;;;;;;;;;;;5027483;28;19909;-48
2023/04/19 15:30:59;;;;;;;;;;;;;;;;;;5026555;28;19916;-46
2023/04/19 15:33:25;;;;;;;;;;;;;;;;;;5022324;28;19913;-48
2023/04/19 15:35:51;;;;;;;;;;;;;;;;;;5036518;28;19913;-46
2023/04/19 15:38:17;;;;;;;;;;;;;;;;;;5026528;28;20004;-47
2023/04/19 15:40:43;;;;;;;;;;;;;;;;;;5025019;28;19936;-47
2023/04/19 15:43:09;;;;;;;;;;;;;;;;;;5022720;28;19912;-47
2023/04/19 15:45:35;;;;;;;;;;;;;;;;;;5026053;28;19919;-47
2023/04/19 15:48:01;;;;;;;;;;;;;;;;;;5027310;28;19909;-49
2023/04/19 15:50:27;;;;;;;;;;;;;;;;;;5027073;28;19915;-46
2023/04/19 15:52:53;;;;;;;;;;;;;;;;;;5027082;28;19913;-48
2023/04/19 15:55:19;;;;;;;;;;;;;;;;;;5028634;28;19935;-49
2023/04/19 15:57:48;;;;;;;;;;;;;;;;;;5027046;28;19909;-48
2023/04/19 16:00:14;;;;;;;;;;;;;;;;;;5026223;28;19915;-51
2023/04/19 16:02:40;;;;;;;;;;;;;;;;;;5026623;28;19913;-45
2023/04/19 16:05:06;;;;;;;;;;;;;;;;;;5016314;28;19916;-46
2023/04/19 16:07:32;;;;;;;;;;;;;;;;;;5007492;28;19917;-48
2023/04/19 16:09:58;;;;;;;;;;;;;;;;;;5025255;28;19972;-47
2023/04/19 16:12:24;;;;;;;;;;;;;;;;;;5027223;28;19927;-48
2023/04/19 16:14:51;;;;;;;;;;;;;;;;;;5027212;28;19912;-46
2023/04/19 16:17:17;;;;;;;;;;;;;;;;;;5024474;28;20001;-49
2023/04/19 16:19:42;;;;;;;;;;;;;;;;;;5025546;28;20028;-45
2023/04/19 16:22:08;;;;;;;;;;;;;;;;;;5025708;28;19913;-49
2023/04/19 16:24:34;;;;;;;;;;;;;;;;;;5025443;28;19905;-49
2023/04/19 16:27:01;;;;;;;;;;;;;;;;;;5024671;28;20304;-50
2023/04/19 16:29:27;;;;;;;;;;;;;;;;;;5025021;28;20350;-48
2023/04/19 16:31:54;;;;;;;;;;;;;;;;;;5022097;28;20004;-50
2023/04/19 16:34:20;;;;;;;;;;;;;;;;;;5023713;28;20003;-45
2023/04/19 16:36:47;;;;;;;;;;;;;;;;;;5023766;28;19913;-45
2023/04/19 16:39:13;;;;;;;;;;;;;;;;;;5023753;28;19924;-46
2023/04/19 16:41:39;;;;;;;;;;;;;;;;;;5024596;28;19909;-46
2023/04/19 16:44:05;;;;;;;;;;;;;;;;;;5024091;28;19949;-47
2023/04/19 16:46:32;;;;;;;;;;;;;;;;;;5006099;28;19962;-46
2023/04/19 16:48:59;;;;;;;;;;;;;;;;;;5005529;28;19961;-47
2023/04/19 16:51:25;;;;;;;;;;;;;;;;;;5023924;28;19928;-49
2023/04/19 16:53:52;;;;;;;;;;;;;;;;;;5023555;28;20335;-49
2023/04/19 16:56:19;;;;;;;;;;;;;;;;;;5022279;28;20342;-48
2023/04/19 16:58:45;;;;;;;;;;;;;;;;;;5023428;28;19958;-47
2023/04/19 17:01:11;;;;;;;;;;;;;;;;;;5023256;28;20043;-46
2023/04/19 17:03:37;;;;;;;;;;;;;;;;;;5024656;28;20405;-45
2023/04/19 17:06:05;;;;;;;;;;;;;;;;;;5023417;28;19916;-46
2023/04/19 17:08:31;;;;;;;;;;;;;;;;;;5025517;28;20299;-46
2023/04/19 17:10:58;;;;;;;1.40;1.30;;;;;;;;;;5026570;28;20559;-46
2023/04/19 17:13:25;;;;;;;1.25;1.15;;;;;;;;;;5008395;28;20452;-48
2023/04/19 17:15:51;;;;;;;1.17;1.08;;;;;;;;;;5026263;28;20784;-47
2023/04/19 17:18:17;;;;;;;0.80;0.80;;;;;;;;;;5026679;28;20149;-48
2023/04/19 17:20:44;;;;;;;1.42;1.15;;;;;;;;;;5026426;28;20078;-46
2023/04/19 17:23:10;;;;;;;1.10;1.00;;;;;;;;;;5026404;28;20159;-46
2023/04/19 17:25:36;;;;;;;1.15;1.05;;;;;;;;;;5026778;28;20205;-46
2023/04/19 17:28:02;;;;;;;0.70;0.70;;;;;;;;;;5027262;28;20161;-47
2023/04/19 17:30:29;;;;;;;0.82;0.82;;;;;;;;;;5026357;28;20069;-47
2023/04/19 17:32:55;;;;;;;0.95;0.95;;;;;;;;;;5015778;28;20078;-49
2023/04/19 17:35:21;;;;;;;0.80;0.80;;;;;;;;;;5027972;28;20127;-47
2023/04/19 17:37:47;;;;;;;0.93;0.90;;;;;;;;;;5026423;28;20082;-47
2023/04/19 17:40:14;;;;;;;0.90;0.90;;;;;;;;;;5026091;28;20650;-47
2023/04/19 17:42:40;;;;;;;1.10;1.00;;;;;;;;;;5008150;28;20157;-48
2023/04/19 17:45:09;;;;;;;0.88;0.80;;;;;;;;;;5025967;28;20074;-49
2023/04/19 17:47:36;;;;;;;1.30;1.20;;;;;;;;;;5026026;28;20078;-45
2023/04/19 17:50:09;;;;;;;1.13;1.02;;;;;;;;;;5008562;28;20070;-45
2023/04/19 17:52:36;;;;;;;1.10;1.02;;;;;;;;;;5026379;28;20088;-47
2023/04/19 17:55:03;;;;;;;1.10;1.00;;;;;;;;;;5008836;28;20448;-45
2023/04/19 17:57:30;;;;;;;1.20;1.10;;;;;;;;;;5026019;28;20097;-44
2023/04/19 17:59:56;;;;;;;1.88;1.63;;;;;;;;;;5025502;28;20590;-44
2023/04/19 18:02:22;;;;;;;3.85;2.22;;;;;;;;;;5026549;28;20085;-45
2023/04/19 18:04:49;;;;;;;4.20;2.50;;;;;;;;;;5026409;28;20076;-45
2023/04/19 18:07:16;;;;;;;2.78;1.98;;;;;;;;;;5007281;28;20093;-45
2023/04/19 18:09:42;;;;;;;2.65;2.30;;;;;;;;;;5007456;28;20078;-46
2023/04/19 18:12:09;;;;;;;2.17;1.73;;;;;;;;;;5012173;28;20082;-45
2023/04/19 18:14:35;;;;;;;2.67;2.03;;;;;;;;;;5023916;28;20604;-44
2023/04/19 18:17:01;;;;;;;2.63;1.90;;;;;;;;;;5025884;28;20398;-47
2023/04/19 18:19:28;;;;;;;2.88;2.22;;;;;;;;;;5015765;28;20451;-46
2023/04/19 18:21:55;;;;;;;3.08;2.13;;;;;;;;;;5018403;28;20493;-45
2023/04/19 18:24:21;;;;;;;2.47;2.13;;;;;;;;;;5026088;28;20090;-45
2023/04/19 18:26:47;;;;;;;2.00;1.80;;;;;;;;;;5024470;28;20152;-46
2023/04/19 18:29:14;;;;;;;2.15;1.90;;;;;;;;;;5025353;28;20365;-47
2023/04/19 18:31:40;;;;;;;1.20;1.10;;;;;;;;;;5024795;28;20066;-45
2023/04/19 18:34:06;;;;;;;1.38;1.20;;;;;;;;;;5024141;28;20618;-45
2023/04/19 18:36:32;;;;;;;1.20;1.10;;;;;;;;;;5025960;28;20080;-45
2023/04/19 18:38:58;;;;;;;1.25;1.15;;;;;;;;;;5024120;28;20503;-45
2023/04/19 18:41:24;;;;;;;1.33;1.23;;;;;;;;;;5025516;28;20092;-44
2023/04/19 18:43:50;;;;;;;1.48;1.35;;;;;;;;;;5025622;28;20101;-45
2023/04/19 18:46:17;;;;;;;1.50;1.20;;;;;;;;;;5025382;28;20082;-45
2023/04/19 18:48:45;;;;;;;1.35;1.23;;;;;;;;;;5025160;28;20085;-44
2023/04/19 18:51:12;;;;;;;1.25;1.15;;;;;;;;;;5025530;28;20097;-45
2023/04/19 18:53:38;;;;;;;1.15;1.05;;;;;;;;;;5024688;28;20082;-44
2023/04/19 18:56:04;;;;;;;2.05;1.20;;;;;;;;;;5023590;28;20768;-46
2023/04/19 18:58:30;;;;;;;1.17;1.08;;;;;;;;;;5024069;28;20084;-47
2023/04/19 19:00:56;;;;;;;1.27;1.00;;;;;;;;;;5025996;28;20165;-45
2023/04/19 19:03:22;;;;;;;1.65;1.10;;;;;;;;;;5023709;28;20097;-46
2023/04/19 19:05:50;;;;;;;0.88;0.70;;;;;;;;;;5024938;28;20599;-46
2023/04/19 19:08:16;;;;;;;1.17;0.80;;;;;;;;;;5021050;28;20184;-46
2023/04/19 19:10:43;;;;;;;1.20;0.88;;;;;;;;;;5023522;28;20548;-45
2023/04/19 19:13:10;;;;;;;1.40;1.10;;;;;;;;;;5029221;28;20169;-46
2023/04/19 19:15:36;;;;;;;0.95;0.90;;;;;;;;;;5022798;28;20082;-46
2023/04/19 19:18:03;;;;;;;1.10;0.88;;;;;;;;;;5024698;28;20496;-47
2023/04/19 19:20:31;;;;;;;1.15;0.95;;;;;;;;;;5023868;28;20089;-48
2023/04/19 19:22:58;;;;;;;0.82;0.82;;;;;;;;;;5005841;28;20180;-45
2023/04/19 19:25:24;;;;;;;0.85;0.85;;;;;;;;;;5023140;28;20563;-47
2023/04/19 19:27:52;;;;;;;1.02;0.93;;;;;;;;;;5023493;28;20077;-46
2023/04/19 19:30:20;;;;;;;1.13;1.02;;;;;;;;;;5004873;28;20078;-47
2023/04/19 19:32:46;;;;;;;0.80;0.80;;;;;;;;;;5022235;28;20074;-45
2023/04/19 19:35:13;;;;;;;1.00;0.90;;;;;;;;;;5022934;28;20105;-44
2023/04/19 19:37:39;;;;;;;1.42;1.05;;;;;;;;;;5023382;28;20086;-45
2023/04/19 19:40:06;;;;;;;0.77;0.70;;;;;;;;;;5005942;28;20468;-45
2023/04/19 19:42:33;;;;;;;1.40;0.93;;;;;;;;;;5024524;28;20475;-45
2023/04/19 19:45:00;;;;;;;1.05;0.82;;;;;;;;;;5023427;28;20109;-47
2023/04/19 19:47:30;;;;;;;0.90;0.90;;;;;;;;;;5023792;28;20556;-44
2023/04/19 19:50:00;;;;;;;1.08;0.98;;;;;;;;;;5023326;28;20523;-44
2023/04/19 19:52:30;;;;;;;1.10;1.00;;;;;;;;;;5005817;28;20090;-46
2023/04/19 19:54:56;;;;;;;1.30;1.20;;;;;;;;;;5022554;28;21262;-44
2023/04/19 19:57:23;;;;;;;1.33;1.20;;;;;;;;;;5022590;28;20522;-45
2023/04/19 19:59:50;;;;;;;1.17;1.08;;;;;;;;;;5018930;28;20078;-44
2023/04/19 20:02:17;;;;;;;1.20;1.10;;;;;;;;;;5023874;28;20155;-45
2023/04/19 20:04:43;;;;;;;1.08;0.98;;;;;;;;;;5005622;28;20545;-45
2023/04/19 20:07:13;;;;;;;1.13;1.00;;;;;;;;;;5023286;28;20837;-45
2023/04/19 20:09:39;;;;;;;1.30;1.20;;;;;;;;;;4986026;28;1078824;-44
2023/04/19 20:12:06;;;;;;;1.55;1.20;;;;;;;;;;5024884;28;20085;-44
2023/04/19 20:14:36;;;;;;;1.33;1.17;;;;;;;;;;5025207;28;20161;-45
2023/04/19 20:17:02;;;;;;;1.20;1.10;;;;;;;;;;5024819;28;20119;-47
2023/04/19 20:19:28;;;;;;;1.05;0.95;;;;;;;;;;5024078;28;20624;-44
2023/04/19 20:21:54;;;;;;;1.30;1.13;;;;;;;;;;5023898;28;20078;-45
2023/04/19 20:24:20;;;;;;;1.42;0.90;;;;;;;;;;5024340;28;20082;-44
2023/04/19 20:26:47;;;;;;;1.02;0.93;;;;;;;;;;5023529;28;20536;-44
2023/04/19 20:29:13;;;;;;;1.02;0.90;;;;;;;;;;5024220;28;20085;-46
2023/04/19 20:31:39;;;;;;;0.90;0.80;;;;;;;;;;5023757;28;20533;-44
2023/04/19 20:34:05;;;;;;;0.88;0.80;;;;;;;;;;5024628;28;20077;-44
2023/04/19 20:36:31;;;;;;;1.05;1.00;;;;;;;;;;5024886;28;20086;-46
2023/04/19 20:38:57;;;;;;;1.40;1.30;;;;;;;;;;5023912;28;20153;-44
2023/04/19 20:41:25;;;;;;;1.92;1.70;;;;;;;;;;5024046;28;20074;-46
2023/04/19 20:43:51;;;;;;;2.80;2.50;;;;;;;;;;5025139;28;20086;-47
2023/04/19 20:46:17;;;;;;;3.15;2.83;;;;;;;;;;5026439;28;20088;-44
2023/04/19 20:48:43;;;;;;;2.83;2.38;;;;;;;;;;5031754;28;20077;-45
2023/04/19 20:51:11;;;;;;;3.63;3.25;;;;;;;;;;5033581;28;20124;-44
2023/04/19 20:53:37;;;;;;;3.40;3.10;;;;;;;;;;5028066;28;20078;-45
2023/04/19 20:56:03;;;;;;;3.85;3.45;;;;;;;;;;5028106;28;20096;-45
2023/04/19 20:58:32;;;;;;;5.18;4.10;;;;;;;;;;5027280;28;20560;-44
2023/04/19 21:00:58;;;;;;;4.13;3.42;;;;;;;;;;5027651;28;20541;-45
2023/04/19 21:03:24;;;;;;;4.38;3.78;;;;;;;;;;5027405;28;20086;-44
2023/04/19 21:05:50;;;;;;;3.85;3.53;;;;;;;;;;5027158;28;20510;-45
2023/04/19 21:08:17;;;;;;;4.22;3.80;;;;;;;;;;5027672;28;20066;-46
2023/04/19 21:10:44;;;;;;;4.47;4.07;;;;;;;;;;5009478;28;20476;-46
2023/04/19 21:13:10;;;;;;;4.55;4.00;;;;;;;;;;5027872;28;20156;-43